createdAt,value
2022-11-14T00:02:38.045Z,9.70
2022-11-14T00:05:24.168Z,6.97
2022-11-14T00:08:21.335Z,7.90
2022-11-14T00:11:06.212Z,7.03
2022-11-14T00:13:51.535Z,9.10
2022-11-14T00:16:36.259Z,7.90
2022-11-14T00:19:21.101Z,7.50
2022-11-14T00:22:06.434Z,8.83
2022-11-14T00:24:51.924Z,8.77
2022-11-14T00:27:36.704Z,8.93
2022-11-14T00:30:22.556Z,8.93
2022-11-14T00:33:07.512Z,7.80
2022-11-14T00:35:56.464Z,8.77
2022-11-14T00:38:41.849Z,8.20
2022-11-14T00:41:26.723Z,8.13
2022-11-14T00:44:12.025Z,8.87
2022-11-14T00:46:57.666Z,10.23
2022-11-14T00:49:42.840Z,9.27
2022-11-14T00:52:28.216Z,9.90
2022-11-14T00:55:13.134Z,7.33
2022-11-14T00:57:58.741Z,8.90
2022-11-14T01:00:44.217Z,9.73
2022-11-14T01:03:29.243Z,9.43
2022-11-14T01:06:15.931Z,10.17
2022-11-14T01:09:01.091Z,7.80
2022-11-14T01:11:46.455Z,10.33
2022-11-14T01:14:31.977Z,10.87
2022-11-14T01:17:17.220Z,10.23
2022-11-14T01:20:02.523Z,12.13
2022-11-14T01:22:47.598Z,8.90
2022-11-14T01:25:33.316Z,8.40
2022-11-14T01:28:19.111Z,6.80
2022-11-14T01:31:11.024Z,8.27
2022-11-14T01:33:55.981Z,8.00
2022-11-14T01:36:41.315Z,8.07
2022-11-14T01:39:26.497Z,5.43
2022-11-14T01:42:11.561Z,7.57
2022-11-14T01:44:56.641Z,6.37
2022-11-14T01:47:42.159Z,5.73
2022-11-14T01:50:27.574Z,6.73
2022-11-14T01:53:12.437Z,5.30
2022-11-14T01:55:59.363Z,6.50
2022-11-14T01:58:46.036Z,4.43
2022-11-14T02:01:31.495Z,6.07
2022-11-14T02:04:27.820Z,5.03
2022-11-14T02:07:13.079Z,6.10
2022-11-14T02:09:58.375Z,5.47
2022-11-14T02:12:43.255Z,6.23
2022-11-14T02:15:28.359Z,6.20
2022-11-14T02:18:13.819Z,6.07
2022-11-14T02:20:58.988Z,4.77
2022-11-14T02:23:44.431Z,4.53
2022-11-14T02:26:31.988Z,6.33
2022-11-14T02:29:21.154Z,4.83
2022-11-14T02:32:10.484Z,6.93
2022-11-14T02:34:55.780Z,5.47
2022-11-14T02:40:44.236Z,4.43
2022-11-14T02:43:29.631Z,6.33
2022-11-14T02:46:14.873Z,4.93
2022-11-14T02:52:02.725Z,6.50
2022-11-14T02:57:50.814Z,5.90
2022-11-14T03:03:39.233Z,5.17
2022-11-14T03:06:24.469Z,6.60
2022-11-14T03:09:10.192Z,5.83
2022-11-14T03:11:55.117Z,7.47
2022-11-14T03:14:39.950Z,8.80
2022-11-14T03:20:28.525Z,9.40
2022-11-14T03:23:13.955Z,9.93
2022-11-14T03:26:00.143Z,9.83
2022-11-14T03:28:45.560Z,9.97
2022-11-14T03:31:30.953Z,11.13
2022-11-14T03:34:17.020Z,7.67
2022-11-14T03:37:02.334Z,9.70
2022-11-14T03:39:47.473Z,9.80
2022-11-14T03:42:35.625Z,9.00
2022-11-14T03:45:20.987Z,9.97
2022-11-14T03:48:06.233Z,10.50
2022-11-14T03:53:54.603Z,10.87
2022-11-14T03:56:39.977Z,13.30
2022-11-14T03:59:24.950Z,10.43
2022-11-14T04:05:13.912Z,11.10
2022-11-14T04:07:59.309Z,11.40
2022-11-14T04:10:46.732Z,11.97
2022-11-14T04:16:35.020Z,11.73
2022-11-14T04:19:19.978Z,9.77
2022-11-14T04:22:04.979Z,10.10
2022-11-14T04:24:50.124Z,12.30
2022-11-14T04:27:35.515Z,11.43
2022-11-14T04:33:24.476Z,13.23
2022-11-14T04:36:09.960Z,12.40
2022-11-14T04:38:55.231Z,10.33
2022-11-14T04:41:40.514Z,11.37
2022-11-14T04:44:25.743Z,11.97
2022-11-14T04:50:13.860Z,13.93
2022-11-14T04:53:00.008Z,13.00
2022-11-14T04:55:45.851Z,12.43
2022-11-14T05:01:34.163Z,14.63
2022-11-14T05:04:19.805Z,15.40
2022-11-14T05:07:05.284Z,15.27
2022-11-14T05:12:54.317Z,15.60
2022-11-14T05:18:47.006Z,15.70
2022-11-14T05:21:32.689Z,17.77
2022-11-14T05:24:19.380Z,15.20
2022-11-14T05:27:05.739Z,19.67
2022-11-14T05:29:50.728Z,16.77
2022-11-14T05:35:38.681Z,15.70
2022-11-14T05:38:23.881Z,15.73
2022-11-14T05:41:09.614Z,17.90
2022-11-14T05:43:54.927Z,20.37
2022-11-14T05:46:40.285Z,18.00
2022-11-14T05:49:25.051Z,18.93
2022-11-14T05:52:10.380Z,21.43
2022-11-14T05:54:56.124Z,18.30
2022-11-14T05:57:41.179Z,23.13
2022-11-14T06:00:27.139Z,20.87
2022-11-14T06:03:12.120Z,20.70
2022-11-14T06:05:57.299Z,20.60
2022-11-14T06:08:42.635Z,22.97
2022-11-14T06:11:27.957Z,21.33
2022-11-14T06:14:13.472Z,28.03
2022-11-14T06:16:59.036Z,24.07
2022-11-14T06:19:44.329Z,23.07
2022-11-14T06:22:29.665Z,24.33
2022-11-14T06:25:15.242Z,23.80
2022-11-14T06:28:00.428Z,23.07
2022-11-14T06:30:45.402Z,23.90
2022-11-14T06:33:33.643Z,29.23
2022-11-14T06:36:18.737Z,26.53
2022-11-14T06:39:04.310Z,24.70
2022-11-14T06:41:49.240Z,24.30
2022-11-14T06:44:34.537Z,27.23
2022-11-14T06:47:19.511Z,26.57
2022-11-14T06:50:06.041Z,24.97
2022-11-14T06:52:51.267Z,37.43
2022-11-14T06:55:36.717Z,37.20
2022-11-14T06:58:22.034Z,28.40
2022-11-14T07:01:08.051Z,27.20
2022-11-14T07:03:53.544Z,26.70
2022-11-14T07:06:38.916Z,30.53
2022-11-14T07:09:23.829Z,29.80
2022-11-14T07:12:09.773Z,26.07
2022-11-14T07:14:55.027Z,25.50
2022-11-14T07:17:40.377Z,24.07
2022-11-14T07:20:26.069Z,23.47
2022-11-14T07:23:11.339Z,19.97
2022-11-14T07:26:00.099Z,21.57
2022-11-14T07:28:48.122Z,24.60
2022-11-14T07:31:36.219Z,23.47
2022-11-14T07:34:21.143Z,23.33
2022-11-14T07:37:06.346Z,21.87
2022-11-14T07:39:51.432Z,20.13
2022-11-14T07:42:36.744Z,19.93
2022-11-14T07:45:22.988Z,19.37
2022-11-14T07:48:08.172Z,20.23
2022-11-14T07:50:53.424Z,19.87
2022-11-14T07:53:38.221Z,23.10
2022-11-14T07:56:25.940Z,23.20
2022-11-14T07:59:10.944Z,20.87
2022-11-14T08:01:56.190Z,22.40
2022-11-14T08:04:41.764Z,19.93
2022-11-14T08:07:27.002Z,20.80
2022-11-14T08:10:14.226Z,20.43
2022-11-14T08:13:29.743Z,19.40
2022-11-14T08:16:12.036Z,19.80
2022-11-14T08:18:58.554Z,20.40
2022-11-14T08:21:43.847Z,18.60
2022-11-14T08:24:29.380Z,17.63
2022-11-14T08:27:14.639Z,19.17
2022-11-14T08:30:00.054Z,19.00
2022-11-14T08:32:45.103Z,18.27
2022-11-14T08:35:30.702Z,15.70
2022-11-14T08:38:15.645Z,18.73
2022-11-14T08:41:01.645Z,17.70
2022-11-14T08:43:46.932Z,16.63
2022-11-14T08:46:32.476Z,17.77
2022-11-14T08:49:17.788Z,14.80
2022-11-14T08:52:03.626Z,14.33
2022-11-14T08:54:48.737Z,13.73
2022-11-14T08:57:34.245Z,14.50
2022-11-14T09:00:20.195Z,13.97
2022-11-14T09:03:09.257Z,12.47
2022-11-14T09:05:54.617Z,14.37
2022-11-14T09:08:39.678Z,12.57
2022-11-14T09:11:24.672Z,12.57
2022-11-14T09:17:12.588Z,12.70
2022-11-14T09:19:58.147Z,9.47
2022-11-14T09:22:43.006Z,11.23
2022-11-14T09:25:31.622Z,9.90
2022-11-14T09:28:17.139Z,12.00
2022-11-14T09:31:03.268Z,12.40
2022-11-14T09:33:48.498Z,10.73
2022-11-14T09:36:34.355Z,11.67
2022-11-14T09:39:19.690Z,11.47
2022-11-14T09:42:17.303Z,11.77
2022-11-14T09:45:03.585Z,10.77
2022-11-14T09:47:49.809Z,22.77
2022-11-14T09:50:36.948Z,11.50
2022-11-14T09:53:33.226Z,11.20
2022-11-14T09:56:27.600Z,11.07
2022-11-14T09:59:13.001Z,11.70
2022-11-14T10:02:01.287Z,10.73
2022-11-14T10:04:52.302Z,10.70
2022-11-14T10:07:40.548Z,11.87
2022-11-14T10:10:32.299Z,10.87
2022-11-14T10:13:31.820Z,11.17
2022-11-14T10:19:42.564Z,13.80
2022-11-14T10:22:28.193Z,11.53
2022-11-14T10:25:16.635Z,12.57
2022-11-14T10:28:05.470Z,14.43
2022-11-14T10:30:52.563Z,12.70
2022-11-14T10:33:42.418Z,13.10
2022-11-14T10:36:46.611Z,13.87
2022-11-14T10:42:35.699Z,14.27
2022-11-14T10:45:28.571Z,14.83
2022-11-14T10:48:15.072Z,13.17
2022-11-14T10:51:02.141Z,14.93
2022-11-14T10:53:52.117Z,13.23
2022-11-14T10:56:50.947Z,15.33
2022-11-14T10:59:36.482Z,15.17
2022-11-14T11:02:21.666Z,15.93
2022-11-14T11:05:16.500Z,13.30
2022-11-14T11:08:43.127Z,14.90
2022-11-14T11:11:32.774Z,13.60
2022-11-14T11:14:18.282Z,16.03
2022-11-14T11:17:12.757Z,14.87
2022-11-14T11:19:58.334Z,14.83
2022-11-14T11:22:43.705Z,17.90
2022-11-14T11:25:29.822Z,17.40
2022-11-14T11:28:19.238Z,17.30
2022-11-14T11:31:04.281Z,17.20
2022-11-14T11:33:49.719Z,15.13
2022-11-14T11:36:36.532Z,14.63
2022-11-14T11:39:23.590Z,15.53
2022-11-14T11:42:10.752Z,16.20
2022-11-14T11:44:58.781Z,15.57
2022-11-14T11:50:53.508Z,16.97
2022-11-14T11:56:59.995Z,15.70
2022-11-14T11:59:49.797Z,17.53
2022-11-14T12:02:35.039Z,16.63
2022-11-14T12:05:23.337Z,17.57
2022-11-14T12:08:21.343Z,18.83
2022-11-14T12:11:07.030Z,17.23
2022-11-14T12:13:58.292Z,21.23
2022-11-14T12:16:55.610Z,20.47
2022-11-14T12:19:41.111Z,22.37
2022-11-14T12:22:49.568Z,21.47
2022-11-14T12:25:41.106Z,21.70
2022-11-14T12:28:44.930Z,19.77
2022-11-14T12:31:32.577Z,22.63
2022-11-14T12:34:28.663Z,18.90
2022-11-14T12:37:24.458Z,22.80
2022-11-14T12:40:23.529Z,22.43
2022-11-14T12:43:37.919Z,23.87
2022-11-14T12:46:23.350Z,18.43
2022-11-14T12:49:31.432Z,23.93
2022-11-14T12:52:40.639Z,20.50
2022-11-14T12:55:25.620Z,23.57
2022-11-14T12:58:15.736Z,21.03
2022-11-14T13:01:03.773Z,21.27
2022-11-14T13:04:04.224Z,18.67
2022-11-14T13:07:01.640Z,23.20
2022-11-14T13:13:27.243Z,19.33
2022-11-14T13:16:50.526Z,20.93
2022-11-14T13:19:54.002Z,21.43
2022-11-14T13:22:40.889Z,21.03
2022-11-14T13:25:26.043Z,18.93
2022-11-14T13:28:30.185Z,20.17
2022-11-14T13:31:15.220Z,19.93
2022-11-14T13:34:00.612Z,19.40
2022-11-14T13:37:18.607Z,21.83
2022-11-14T13:40:22.606Z,19.23
2022-11-14T13:43:26.798Z,22.20
2022-11-14T13:46:15.338Z,22.23
2022-11-14T13:49:13.734Z,21.63
2022-11-14T13:51:58.691Z,21.97
2022-11-14T13:54:47.919Z,25.57
2022-11-14T14:00:58.509Z,22.83
2022-11-14T14:03:51.939Z,25.77
2022-11-14T14:06:37.527Z,23.93
2022-11-14T14:09:27.916Z,25.63
2022-11-14T14:12:18.031Z,25.87
2022-11-14T14:15:04.876Z,24.87
2022-11-14T14:18:01.996Z,23.97
2022-11-14T14:20:47.373Z,23.67
2022-11-14T14:23:32.602Z,25.20
2022-11-14T14:26:22.236Z,26.50
2022-11-14T14:29:28.091Z,24.57
2022-11-14T14:35:32.549Z,27.93
2022-11-14T14:41:31.375Z,32.07
2022-11-14T14:47:31.074Z,32.93
2022-11-14T14:50:17.713Z,32.23
2022-11-14T14:53:02.763Z,31.53
2022-11-14T14:55:57.825Z,36.10
2022-11-14T14:58:42.952Z,36.50
2022-11-14T15:01:34.847Z,37.67
2022-11-14T15:04:20.754Z,37.40
2022-11-14T15:07:06.074Z,41.57
2022-11-14T15:09:55.558Z,38.60
2022-11-14T15:12:40.733Z,40.03
2022-11-14T15:15:25.804Z,39.37
2022-11-14T15:21:27.976Z,41.53
2022-11-14T15:24:14.863Z,43.37
2022-11-14T15:27:02.955Z,40.63
2022-11-14T15:29:49.525Z,40.43
2022-11-14T15:32:34.696Z,44.17
2022-11-14T15:35:24.923Z,41.83
2022-11-14T15:38:42.042Z,45.17
2022-11-14T15:41:24.071Z,41.37
2022-11-14T15:44:27.925Z,46.43
2022-11-14T15:47:14.389Z,41.30
2022-11-14T15:50:03.840Z,41.60
2022-11-14T15:52:49.518Z,42.23
2022-11-14T15:55:34.635Z,46.10
2022-11-14T15:58:28.134Z,44.03
2022-11-14T16:01:26.308Z,38.70
2022-11-14T16:04:14.809Z,42.07
2022-11-14T16:06:59.764Z,45.20
2022-11-14T16:09:45.294Z,44.60
2022-11-14T16:12:31.989Z,44.30
2022-11-14T16:15:20.154Z,46.50
2022-11-14T16:18:05.743Z,49.93
2022-11-14T16:20:51.712Z,48.47
2022-11-14T16:23:36.995Z,45.37
2022-11-14T16:26:21.947Z,52.97
2022-11-14T16:29:08.110Z,47.50
2022-11-14T16:31:55.529Z,48.30
2022-11-14T16:34:40.780Z,48.17
2022-11-14T16:37:26.533Z,47.37
2022-11-14T16:40:16.620Z,55.90
2022-11-14T16:43:02.238Z,47.83
2022-11-14T16:45:47.659Z,50.60
2022-11-14T16:48:35.694Z,47.37
2022-11-14T16:51:46.566Z,46.93
2022-11-14T16:54:26.581Z,49.87
2022-11-14T16:57:12.271Z,47.13
2022-11-14T16:59:59.795Z,45.80
2022-11-14T17:02:45.826Z,48.00
2022-11-14T17:05:31.744Z,48.37
2022-11-14T17:08:16.994Z,47.37
2022-11-14T17:14:09.003Z,46.17
2022-11-14T17:19:58.610Z,51.70
2022-11-14T17:22:44.498Z,45.67
2022-11-14T17:25:30.329Z,49.40
2022-11-14T17:28:15.960Z,44.87
2022-11-14T17:31:06.355Z,45.20
2022-11-14T17:33:52.457Z,39.87
2022-11-14T17:36:37.755Z,43.50
2022-11-14T17:39:23.651Z,46.13
2022-11-14T17:42:08.965Z,47.50
2022-11-14T17:44:54.461Z,45.23
2022-11-14T17:47:39.638Z,44.23
2022-11-14T17:50:24.920Z,49.27
2022-11-14T17:53:10.002Z,47.73
2022-11-14T17:55:57.230Z,44.57
2022-11-14T17:58:42.603Z,46.87
2022-11-14T18:01:30.547Z,50.33
2022-11-14T18:04:15.709Z,46.77
2022-11-14T18:07:00.806Z,44.20
2022-11-14T18:09:46.344Z,43.57
2022-11-14T18:12:31.782Z,46.67
2022-11-14T18:15:17.129Z,48.03
2022-11-14T18:18:02.244Z,44.33
2022-11-14T18:20:47.540Z,49.23
2022-11-14T18:23:33.012Z,52.07
2022-11-14T18:26:18.501Z,49.73
2022-11-14T18:29:04.117Z,52.20
2022-11-14T18:31:49.566Z,50.10
2022-11-14T18:34:37.119Z,52.23
2022-11-14T18:37:22.713Z,51.63
2022-11-14T18:40:14.762Z,46.23
2022-11-14T18:43:01.386Z,49.00
2022-11-14T18:45:46.717Z,50.47
2022-11-14T18:48:32.188Z,54.10
2022-11-14T18:51:18.387Z,53.40
2022-11-14T18:54:03.621Z,46.70
2022-11-14T18:56:48.744Z,51.00
2022-11-14T18:59:34.404Z,47.20
2022-11-14T19:02:19.744Z,47.40
2022-11-14T19:05:05.637Z,49.80
2022-11-14T19:07:54.092Z,40.87
2022-11-14T19:10:39.805Z,48.77
2022-11-14T19:13:25.390Z,48.50
2022-11-14T19:16:10.997Z,48.10
2022-11-14T19:18:56.094Z,48.93
2022-11-14T19:21:41.439Z,47.83
2022-11-14T19:24:26.762Z,49.80
2022-11-14T19:27:13.455Z,49.23
2022-11-14T19:30:00.036Z,49.17
2022-11-14T19:32:46.123Z,44.50
2022-11-14T19:35:31.493Z,49.23
2022-11-14T19:38:17.016Z,45.80
2022-11-14T19:41:07.549Z,48.67
2022-11-14T19:43:53.020Z,46.70
2022-11-14T19:46:47.261Z,46.70
2022-11-14T19:49:34.992Z,51.40
2022-11-14T19:52:20.415Z,52.77
2022-11-14T19:55:05.968Z,53.23
2022-11-14T19:57:51.397Z,53.70
2022-11-14T20:00:36.630Z,52.73
2022-11-14T20:03:21.860Z,55.43
2022-11-14T20:06:14.392Z,51.40
2022-11-14T20:09:05.197Z,53.03
2022-11-14T20:11:50.404Z,50.93
2022-11-14T20:14:35.846Z,52.87
2022-11-14T20:17:20.975Z,53.67
2022-11-14T20:20:06.691Z,45.40
2022-11-14T20:22:51.711Z,50.37
2022-11-14T20:25:37.271Z,51.77
2022-11-14T20:28:22.753Z,52.63
2022-11-14T20:31:08.796Z,56.10
2022-11-14T20:33:54.688Z,49.60
2022-11-14T20:39:46.949Z,48.07
2022-11-14T20:42:32.436Z,49.87
2022-11-14T20:45:17.945Z,55.10
2022-11-14T20:48:03.215Z,52.90
2022-11-14T20:50:48.435Z,55.30
2022-11-14T20:53:33.889Z,55.53
2022-11-14T20:56:20.922Z,57.70
2022-11-14T20:59:07.419Z,57.70
2022-11-14T21:01:53.368Z,53.20
2022-11-14T21:04:38.837Z,56.83
2022-11-14T21:07:24.244Z,52.97
2022-11-14T21:10:45.055Z,54.03
2022-11-14T21:13:48.851Z,49.73
2022-11-14T21:16:35.220Z,44.97
2022-11-14T21:19:20.875Z,52.03
2022-11-14T21:22:06.202Z,53.27
2022-11-14T21:24:51.510Z,51.77
2022-11-14T21:27:37.008Z,53.73
2022-11-14T21:30:22.569Z,48.30
2022-11-14T21:33:08.094Z,52.73
2022-11-14T21:35:53.422Z,50.20
2022-11-14T21:38:38.724Z,53.50
2022-11-14T21:41:24.527Z,54.77
2022-11-14T21:44:13.726Z,53.07
2022-11-14T21:46:58.969Z,51.23
2022-11-14T21:49:44.147Z,55.63
2022-11-14T21:52:29.313Z,53.27
2022-11-14T21:55:15.466Z,54.17
2022-11-14T21:58:02.531Z,51.77
2022-11-14T22:04:08.950Z,56.77
2022-11-14T22:06:54.412Z,56.53
2022-11-14T22:09:45.096Z,54.40
2022-11-14T22:12:30.867Z,59.07
2022-11-14T22:15:16.075Z,52.77
2022-11-14T22:18:01.409Z,54.60
2022-11-14T22:20:46.381Z,54.70
2022-11-14T22:26:39.912Z,53.57
2022-11-14T22:29:25.451Z,56.17
2022-11-14T22:32:10.816Z,52.93
2022-11-14T22:34:57.242Z,56.37
2022-11-14T22:37:42.325Z,56.00
2022-11-14T22:43:30.942Z,57.10
2022-11-14T22:49:21.381Z,56.63
2022-11-14T22:55:13.759Z,59.33
2022-11-14T22:58:01.983Z,59.47
2022-11-14T23:00:47.378Z,60.87
2022-11-14T23:03:32.727Z,67.37
2022-11-14T23:06:18.407Z,58.97
2022-11-14T23:09:03.612Z,63.53
2022-11-14T23:11:48.593Z,64.20
2022-11-14T23:14:33.954Z,64.17
2022-11-14T23:17:19.700Z,67.37
2022-11-14T23:20:05.900Z,68.97
2022-11-14T23:22:51.121Z,68.13
2022-11-14T23:25:37.785Z,67.20
2022-11-14T23:28:22.973Z,66.10
2022-11-14T23:31:08.857Z,62.77
2022-11-14T23:33:54.492Z,66.13
2022-11-14T23:36:39.468Z,68.07
2022-11-14T23:39:24.369Z,66.77
2022-11-14T23:42:09.243Z,65.93
2022-11-14T23:44:54.509Z,67.00
2022-11-14T23:47:39.968Z,73.10
2022-11-14T23:50:25.049Z,79.03
2022-11-14T23:53:12.040Z,72.30
2022-11-14T23:55:57.827Z,71.33
2022-11-14T23:58:43.049Z,75.73
